Tiempo atmosférico en la estación meteorológica de Pamplona Aeropuerto, Navarra (459 m.)



Fecha
DESCASC
Temp. máxima en grados centígrados (hora)
DESCASC
Temp. mínima en grados centígrados (hora)
DESCASC
Temp. media en grados centígrados
DESCASC
Racha de viento máxima en m/sg (hora)
DESCASC
Velocidad máxima media en intervalos de 10 minutos(hora)
DESCASC
Precipitaciones diarias en mm
DESCASC
Precipitaciones de 00:00 a 06:00 en mm
DESCASC
Precipitaciones de 06:00 a 12:00 en mm
DESCASC
Precipitaciones de 12:00 a 18:00 en mm
DESCASC
Precipitaciones de 18:00 a 24:00 en mm
DESCASC
11-12-2019 8.4 (13:40) 3 (05:40) 5.7 11.67 (12:10) 7.22 (12:20) 4.3 0 3 0.1 1.2
10-12-2019 13.8 (15:00) 3.3 (08:30) 8.6 7.22 (01:00) 4.72 (01:10) 0.2 0.2 0 0 0
09-12-2019 11 (12:50) 0.8 (04:50) 5.9 16.11 (13:10) 11.39 (13:20) 0.9 0 0.7 0 0.2
08-12-2019 9.3 (20:50) 1.3 (00:00) 5.3 7.22 (20:50) 4.17 (20:50) 4 0 0 3.4 0.6
07-12-2019 12 (16:10) 0.2 (00:00) 6.1 4.17 (21:10) 3.33 (21:20) 0 0 0 0 0
06-12-2019 13 (16:20) -0.6 (-00:0) 6.2 3.61 (21:00) 2.78 (21:00) 0 0 0 0 0
05-12-2019 13.1 (13:10) 2.8 (00:00) 8 12.5 (15:00) 8.06 (14:20) 0 0 0 0 0
04-12-2019 11.7 (16:10) -2.4 (-00:0) 4.6 10.83 (17:50) 7.5 (16:50) 0 0 0 0 0
03-12-2019 6.9 (15:10) -0.3 (00:00) 3.3 9.17 (05:00) 6.39 (11:40) 0 0 0 0 0
02-12-2019 8.9 (12:20) 3.8 (00:00) 6.3 11.39 (16:50) 8.33 (16:20) 0 0 0 0 0
01-12-2019 11.1 (15:00) 4.3 (00:00) 7.7 6.11 (22:00) 4.44 (23:59) 0 0 0 0 0
30-11-2019 16.4 (14:40) 3 (00:00) 9.7 16.94 (16:20) 11.39 (16:20) 23.9 0 0 18.5 5.4
29-11-2019 15.9 (15:00) 5 (00:00) 10.4 8.33 (12:40) 4.72 (13:20) 1.3 1.3 0 0 0
28-11-2019 14.3 (15:10) 8.9 (07:50) 11.6 8.89 (02:20) 6.11 (02:40) 1.1 0 0 0.8 0.3
27-11-2019 15 (13:40) 8.2 (00:00) 11.6 16.39 (04:50) 10.56 (04:50) 1.7 0 0 0.7 1
26-11-2019 16.8 (16:10) 4.9 (00:00) 10.8 18.89 (21:00) 13.06 (20:20) 3.8 0 0 0 3.8
25-11-2019 15.4 (15:20) 6.1 (06:30) 10.7 5.83 (01:00) 4.17 (01:10) 0 0 0 0 0
24-11-2019 10.9 (15:00) 5.2 (00:00) 8 7.78 (13:50) 4.72 (21:20) 7 3.1 0.5 0 3.4
23-11-2019 10.2 (04:10) 5.7 (00:00) 7.9 12.5 (12:10) 7.78 (12:10) 17.5 1.1 11.5 2.8 2.1
22-11-2019 12.2 (20:00) 4.5 (00:00) 8.3 19.72 (14:00) 12.78 (14:50) 1.1 0 0.8 0.1 0.2
21-11-2019 13.3 (14:40) 3.7 (00:00) 8.5 8.89 (13:10) 6.39 (13:10) 0 0 0 0 0
20-11-2019 11 (15:00) -1.1 (08:30) 4.9 11.67 (21:50) 6.94 (20:20) 0 0 0 0 0
19-11-2019 11.5 (14:20) -0.5 (-00:0) 5.5 6.67 (12:50) 4.72 (12:50) 0 0 0 0 0
18-11-2019 7.7 (11:50) 0.7 (00:00) 4.2 10.83 (15:20) 7.5 (15:20) 1.9 1.9 0 0 0
17-11-2019 7.9 (15:20) 2.2 (00:00) 5.1 4.17 (17:00) 3.06 (17:00) 0.8 0 0.7 0.1 0
16-11-2019 3.9 (14:40) -0.9 (-00:0) 1.5 6.11 (15:30) 4.44 (15:30) 4.9 0 1.2 3.5 0.2
15-11-2019 8.1 (15:00) 0.6 (00:00) 4.4 12.5 (10:40) 8.33 (14:30) 3.5 0.1 1.8 0.4 1.2

Gráficas

Temp. máximas Temp. mínimas Temp. medias Precipitaciones Rachas de viento máximas Velocidades máximas media en intervalos de 10 minutos

Datos horarios

Fecha y hora oficial Temperatura (ºC) Velocidad del viento (km/h) Dirección del viento Racha (km/h) Dirección de racha Precipitación (mm) Presión (hPa) Tendencia (hPa) Humedad (%)
2019-12-14 23:00:00 9.2 12 Sur 18 Sudeste 0 960.8 -0.2 72
2019-12-14 22:00:00 9.3 14 Sur 22 Sur 0 960.8 -0.1 73
2019-12-14 21:00:00 10.4 13 Sur 17 Sur 0 961 -0.1 71
2019-12-14 20:00:00 9.6 15 Sur 18 Sur 0 961 0.2 77
2019-12-14 19:00:00 11.1 14 Sur 21 Sur 0 960.9 0 69
2019-12-14 18:00:00 12.1 10 Sur 15 Sudoeste 0 961.1 0.2 63
2019-12-14 17:00:00 12.8 11 Sudoeste 21 Oeste 0 960.8 -0.8 61
2019-12-14 16:00:00 14.6 19 Oeste 28 Oeste 0 960.9 -1.3 54
2019-12-14 15:00:00 15.2 19 Sudoeste 30 Sudoeste 0 960.9 -2 56
2019-12-14 14:00:00 15.1 17 Sudoeste 26 Sudoeste 0 961.6 -1.7 59
2019-12-14 13:00:00 14.2 4 Este 11 Este 0 962.2 -1 59
2019-12-14 12:00:00 12.7 6 Este 11 Sudeste 0 962.9 0.1 64
2019-12-14 11:00:00 9.1 4 Este 9 Este 0 963.3 0.9 85
2019-12-14 10:00:00 7.7 5 Nordeste 8 Nordeste 0 963.2 1.3 88
2019-12-14 09:00:00 7.7 5 Norte 17 Oeste 0 962.8 1.5 81
2019-12-14 08:00:00 7.6 4 Sudoeste 11 Sudeste 0 962.4 1 85
2019-12-14 07:00:00 7.3 6 Sudoeste 11 Noroeste 0 961.9 0.6 86
2019-12-14 06:00:00 7.6 3 Norte 13 Oeste 0 961.3 0.5 90
2019-12-14 05:00:00 6.9 6 Sudoeste 9 Sudoeste 0 961.4 1.5 96
2019-12-14 04:00:00 6.8 5 Este 13 Este 0 961.3 1.6 98
2019-12-14 03:00:00 7.8 7 Este 13 Este 0 960.8 1.1 97
2019-12-14 02:00:00 8.5 4 Este 8 Sudeste 0 959.9 0.3 95
2019-12-14 01:00:00 9.7 5 Sudeste 11 Sur 0 959.7 0.5 93
2019-12-14 00:00:00 9.8 8 Sur 11 Sur 0 959.7 0.8 93
2019-12-13 23:00:00 10.9 4 Sudoeste 21 Norte 0 959.6 1.2 89
2019-12-13 22:00:00 11 14 Norte 24 Norte 0 959.2 1.1 91
2019-12-13 21:00:00 11.6 14 Norte 28 Norte 0 958.9 1.6 87
2019-12-13 20:00:00 12.3 8 Norte 17 Sudoeste 0 958.4 1.4 85
2019-12-13 19:00:00 11.6 4 Sur 13 Sudoeste 0 958.1 1.3 93
2019-12-13 18:00:00 11 5 Este 11 Sudeste 0.4 957.3 0.8 97
2019-12-13 17:00:00 11.2 8 Sur 13 Noroeste 1.7 957 0.5 97
2019-12-13 16:00:00 11.4 9 Noroeste 28 Noroeste 1.5 956.8 0.3 96
2019-12-13 15:00:00 11.8 23 Noroeste 45 Norte 0.5 956.5 0.6 91
2019-12-13 14:00:00 12.1 27 Noroeste 46 Noroeste 0.8 956.5 0.7 88
2019-12-13 13:00:00 12.2 39 Noroeste 65 Oeste 0.6 956.5 1.8 85
2019-12-13 12:00:00 12.8 41 Noroeste 67 Noroeste 0.3 955.9 2.1 78
2019-12-13 11:00:00 12 31 Noroeste 59 Noroeste 0.4 955.8 3 86
2019-12-13 10:00:00 11.5 14 Noroeste 48 Noroeste 0.5 954.7 2.7 90
2019-12-13 09:00:00 11.9 31 Noroeste 46 Noroeste 1 953.8 2.5 87
2019-12-13 08:00:00 9.7 7 Sur 11 Sur 1.8 952.8 1.3 99
2019-12-13 07:00:00 9.2 3 Sur 11 Sur 0.8 952 0.2 99
2019-12-13 06:00:00 8.6 2 Sur 5 Sur 1.2 951.3 -0.6 99
2019-12-13 05:00:00 7.7 4 Este 11 Nordeste 1.3 951.5 -0.4 99
2019-12-13 04:00:00 7.1 3 Sudoeste 9 Oeste 1.1 951.8 -0.8 99
2019-12-13 03:00:00 6.8 3 Nordeste 9 Nordeste 1.3 951.9 -0.6 99
2019-12-13 02:00:00 6.6 4 Nordeste 9 Sudeste 1.3 951.9 -0.6 99
2019-12-13 01:00:00 6.5 2 Nordeste 15 Nordeste 2.6 952.6 0 99
2019-12-13 00:00:00 6.2 9 Nordeste 13 Nordeste 3.1 952.5 -0.6 98
2019-12-12 23:00:00 6.4 9 Nordeste 15 Nordeste 3.4 952.5 -0.7 98
2019-12-12 22:00:00 6.9 10 Nordeste 13 Nordeste 2 952.6 -0.9 98
2019-12-12 21:00:00 7.2 11 Nordeste 15 Nordeste 1.4 953.1 -1 98
2019-12-12 20:00:00 7.9 9 Oeste 18 Sudoeste 1.4 953.2 -1.3 94
2019-12-12 19:00:00 7.1 7 Sudoeste 15 Oeste 4 953.5 -1.6 95
2019-12-12 18:00:00 6.7 8 Sur 24 Sudoeste 3.1 954.1 -2.2 93
2019-12-12 17:00:00 6.9 12 Oeste 22 Oeste 2.7 954.5 -3 91
2019-12-12 16:00:00 6.6 10 Sudoeste 28 Sudoeste 2.1 955.1 -3.9 91
2019-12-12 15:00:00 6.4 18 Sur 30 Sur 2.3 956.3 -4 92
2019-12-12 14:00:00 6.6 18 Sur 24 Sur 0.8 957.5 -4.2 92
2019-12-12 13:00:00 7 12 Sur 24 Sudoeste 0.1 959 -3.2 89
2019-12-12 12:00:00 7.6 16 Sudoeste 28 Sudoeste 0.1 960.3 -2.4 83
2019-12-12 11:00:00 6.4 4 Este 11 Noroeste 0.1 961.7 -1.3 86
2019-12-12 10:00:00 6.2 4 Noroeste 13 Oeste 0 962.2 -1.4 86
2019-12-12 09:00:00 5.9 9 Oeste 18 Noroeste 0 962.7 -1.2 83
2019-12-12 08:00:00 5.5 12 Oeste 17 Oeste 0 963 -1.6 85
2019-12-12 07:00:00 4.7 3 Sudeste 11 Sudeste 0 963.6 -1.6 89
2019-12-12 06:00:00 4.6 4 Sudeste 9 Sur 0 963.9 -1.6 93
2019-12-12 05:00:00 5.2 6 Oeste 13 Noroeste 0 964.6 -1.5 91
2019-12-12 04:00:00 5.1 6 Noroeste 8 Noroeste 0.3 965.2 -1.4 95
2019-12-12 03:00:00 5.2 5 Sudeste -- -- -- 965.5 -1.3 94
2019-12-12 02:00:00 5.1 0 Calma 9 Sur 0.5 966.1 -1 95
2019-12-12 01:00:00 4.9 5 Noroeste 11 Sur 0.8 966.6 -1 95
2019-12-12 00:00:00 5 2 Este 9 Sur 0.6 966.8 -0.7 95
2019-12-11 23:00:00 4.9 8 Sur 17 Sur 0.2 967.1 -0.4 93
2019-12-11 22:00:00 5.5 7 Norte 17 Nordeste 0.4 967.6 0.4 91
2019-12-11 21:00:00 5.9 9 Norte 18 Noroeste 0 967.5 0.1 83
2019-12-11 20:00:00 6.5 13 Oeste 18 Oeste 0 967.5 0.2 73
2019-12-11 19:00:00 5.1 7 Sur 11 Noroeste 0 967.2 -0.3 83
2019-12-11 18:00:00 6.4 9 Noroeste 30 Oeste 0 967.4 -0.1 71
2019-12-11 17:00:00 8 15 Noroeste 24 Norte 0 967.3 -0.3 67
2019-12-11 16:00:00 7.9 13 Noroeste 28 Noroeste 0 967.5 -0.3 73
2019-12-11 15:00:00 7.6 10 Norte 33 Noroeste 0 967.5 -0.3 76
2019-12-11 14:00:00 7.4 23 Noroeste 39 Noroeste 0 967.6 -0.1 79
2019-12-11 13:00:00 7 24 Norte 42 Noroeste 0.1 967.8 0.4 87
2019-12-11 12:00:00 7.6 20 Norte 33 Norte 0.4 967.8 1 85
2019-12-11 11:00:00 5.5 9 Sur 13 Sur 1.4 967.7 1.4 95
2019-12-11 10:00:00 5 2 Sur 11 Sur 1.1 967.4 1.5 94
2019-12-11 09:00:00 4.6 8 Sur 11 Sur 0.1 966.8 1.1 94
2019-12-11 08:00:00 3.9 12 Noroeste 15 Noroeste 0 966.3 0.4 96
2019-12-11 07:00:00 3.7 6 Norte 13 Sudeste 0 965.9 -0.6 95
2019-12-11 06:00:00 3.3 2 Noroeste 8 Sudoeste 0 965.7 -1.7 96
2019-12-11 05:00:00 3.5 5 Sudoeste 8 Oeste 0 965.9 -1.8 94
2019-12-11 04:00:00 4.3 3 Sudeste 8 Sudeste 0 966.5 -2.2 94
2019-12-11 03:00:00 4.5 8 Sudeste 13 Noroeste 0 967.4 -1.5 91
2019-12-11 02:00:00 4.6 4 Sur 8 Sur 0 967.7 -1.4 90
2019-12-11 01:00:00 4.8 3 Sur -- -- 0 968.7 -0.8 91
2019-12-11 00:00:00 4.5 3 Sudeste 8 Sur 0 968.9 -0.9 90
2019-12-10 23:00:00 4 0 Calma 8 Sur 0 969.1 -1 89
2019-12-10 22:00:00 4.6 6 Sur 8 Sur 0 969.5 -0.5 85
2019-12-10 21:00:00 5.2 5 Sudeste 8 Sudeste 0 969.8 -0.2 85
2019-12-10 20:00:00 6.1 4 Este 9 Sudeste 0 970.1 -0.1 84
2019-12-10 19:00:00 7.3 6 Sudeste 9 Sur 0 970 -0.8 76
2019-12-10 18:00:00 9.2 0 Calma 8 Oeste 0 970 -1.1 74
2019-12-10 17:00:00 -- -- -- -- -- 0 970.2 -2 --
2019-12-10 16:00:00 13 2 Sudoeste 9 Este 0 970.8 -2.2 53
2019-12-10 15:00:00 13.5 4 Sudeste 9 Noroeste 0 971.1 -3.1 52
2019-12-10 14:00:00 12.3 7 Noroeste 15 Noroeste 0 972.2 -2.8 58
2019-12-10 13:00:00 11.6 4 Sur 13 Sudoeste 0 973 -2.2 64
2019-12-10 12:00:00 10.3 4 Oeste 9 Oeste 0 974.2 -1.1 71
2019-12-10 11:00:00 8.2 4 Noroeste 9 Noroeste 0 975 -0.4 81
2019-12-10 10:00:00 6.2 4 Sudeste 11 Oeste 0 975.2 -0.2 90
2019-12-10 09:00:00 4.1 8 Noroeste 17 Oeste 0 975.3 -0.3 94
2019-12-10 08:00:00 4.4 9 Norte 15 Norte 0 975.4 -0.7 92
2019-12-10 07:00:00 4.2 9 Oeste 18 Oeste 0 975.4 -1.1 93
2019-12-10 06:00:00 5.2 10 Noroeste 15 Noroeste 0 975.6 -1.1 94
2019-12-10 05:00:00 5.6 8 Oeste 22 Noroeste 0 976.1 -1 94
2019-12-10 04:00:00 6.6 15 Noroeste 24 Noroeste 0 976.5 -0.6 96
2019-12-10 03:00:00 6.5 14 Noroeste 21 Noroeste 0 976.7 -0.3 96
2019-12-10 02:00:00 6.6 12 Norte 26 Noroeste 0.2 977.1 -0.2 95
2019-12-10 01:00:00 7 14 Noroeste 26 Noroeste 0 977.1 0.3 86
2019-12-10 00:00:00 7.1 14 Noroeste 24 Norte 0.1 977 0.2 86
2019-12-09 23:00:00 7 17 Norte 37 Norte 0 977.3 1.1 90
2019-12-09 22:00:00 7.4 18 Noroeste 26 Norte 0 976.8 0.9 88
2019-12-09 21:00:00 7.3 13 Norte 35 Norte 0.1 976.8 1.5 90
2019-12-09 20:00:00 7.9 22 Noroeste 30 Noroeste 0 976.2 1.4 83
2019-12-09 19:00:00 7.8 19 Noroeste 35 Noroeste 0 975.9 1.6 83
2019-12-09 18:00:00 7.8 24 Noroeste 50 Norte 0 975.3 1.8 81
2019-12-09 17:00:00 9.1 24 Norte 48 Noroeste 0 974.8 1.6 72
2019-12-09 16:00:00 10 33 Noroeste 54 Noroeste 0 974.3 0.9 64
2019-12-09 15:00:00 9.8 33 Noroeste 54 Noroeste 0 973.5 0.2 69
2019-12-09 14:00:00 9.8 31 Noroeste 58 Noroeste 0 973.2 -0.1 73
2019-12-09 13:00:00 10.7 31 Noroeste 52 Noroeste 0 973.4 0.4 70
2019-12-09 12:00:00 9.5 33 Norte 50 Norte 0 973.3 0.9 78
2019-12-09 11:00:00 8.8 32 Noroeste 48 Noroeste 0.3 973.3 1.4 80
2019-12-09 10:00:00 7.8 14 Noroeste 37 Noroeste 0.4 973 1.2 89
2019-12-09 09:00:00 8 19 Noroeste 30 Noroeste 0 972.4 0.6 83
2019-12-09 08:00:00 7.3 6 Sudoeste 28 Oeste 0 971.9 0 82
2019-12-09 07:00:00 6.3 10 Sudoeste 24 Sudoeste 0 971.8 0.2 85
2019-12-09 06:00:00 3.1 4 Sur 13 Sur 0 971.8 0.4 98
2019-12-09 05:00:00 1.2 5 Sudoeste 9 Sudoeste 0 971.9 0.4 97
2019-12-09 04:00:00 1.4 4 Sudeste 8 Sudoeste 0 971.6 0.3 96
2019-12-09 03:00:00 3 5 Sudeste 9 Sudeste 0 971.4 -0.2 96
2019-12-09 02:00:00 3.7 6 Sur 11 Sudeste 0 971.5 0 93
2019-12-09 01:00:00 5.8 5 Sur 17 Norte 0 971.3 0.3 85
2019-12-09 00:00:00 7.5 8 Nordeste 15 Norte 0 971.6 0.2 81
2019-12-08 23:00:00 8.1 8 Norte 18 Norte 0 971.5 0.6 84
2019-12-08 22:00:00 8.8 10 Norte 17 Nordeste 0 971 0.7 84
2019-12-08 21:00:00 9 12 Norte 26 Norte 0 971.4 2 87
2019-12-08 20:00:00 6.2 6 Sur 11 Sur 0.1 970.9 1.7 98
2019-12-08 19:00:00 6.2 4 Noroeste 8 Norte 0.5 970.3 1.4 98
2019-12-08 18:00:00 6.2 4 Sur 5 Sur 0.2 969.4 0.7 97
2019-12-08 17:00:00 6.2 0 Calma 5 Oeste 0.7 969.2 0.1 96
2019-12-08 16:00:00 6.1 3 Oeste 8 Sudoeste 0.6 968.9 -0.8 95
2019-12-08 15:00:00 5.9 0 Calma 5 Noroeste 1.1 968.7 -1.5 95
2019-12-08 14:00:00 5.5 2 Nordeste 8 Noroeste 0.8 969.1 -1.6 95
2019-12-08 13:00:00 5 5 Oeste 8 Noroeste 0 969.7 -0.8 97
2019-12-08 12:00:00 4.3 0 Calma 5 Este 0 970.2 0 98
2019-12-08 11:00:00 3.9 3 Noroeste 5 Noroeste 0 970.7 0.6 99
2019-12-08 10:00:00 3.4 0 Calma 8 Este 0 970.5 0.7 99
2019-12-08 09:00:00 2.9 4 Norte -- -- -- 970.2 0.6 99
2019-12-08 08:00:00 2.9 3 Nordeste -- -- -- 970.1 0.4 99
2019-12-08 07:00:00 2.5 0 Calma 4 Este 0 969.8 -0.3 99
2019-12-08 06:00:00 2.1 0 Calma -- -- 0 969.6 -0.7 99
2019-12-08 05:00:00 1.6 3 Nordeste 8 Noroeste 0 969.7 -0.8 98
2019-12-08 04:00:00 1.5 3 Oeste 8 Noroeste 0 970.1 -0.8 98
2019-12-08 03:00:00 1.5 5 Noroeste 8 Oeste 0 970.3 -0.6 97
2019-12-08 02:00:00 2.6 3 Este 9 Sur 0 970.5 -0.4 98
2019-12-08 01:00:00 2.6 3 Sudeste 8 Sur 0 970.9 0 98
2019-12-08 00:00:00 3.3 3 Este 8 Sudoeste 0 970.9 0.2 98
2019-12-07 23:00:00 3.5 3 Sur 8 Sur 0 970.9 0.3 97
2019-12-07 22:00:00 4.5 5 Sudeste 15 Sur 0 970.9 0.9 95
2019-12-07 21:00:00 4.6 11 Sur 13 Sur 0 970.7 1.2 94
2019-12-07 20:00:00 6.2 4 Sudeste 5 Sudeste 0 970.6 1.4 91
2019-12-07 19:00:00 7 4 Sudoeste 8 Sudoeste 0 970 1.2 90
2019-12-07 18:00:00 9.3 2 Sur 5 Sudoeste 0 969.5 0.4 84
2019-12-07 17:00:00 11.8 5 Oeste 8 Noroeste 0 969.2 -0.6 69
2019-12-07 16:00:00 11.3 4 Noroeste 8 Oeste 0 968.8 -1.8 70
2019-12-07 15:00:00 10.7 3 Este 9 Nordeste 0 969.1 -2.2 72
2019-12-07 14:00:00 9.2 3 Nordeste 11 Este 0 969.8 -1.8 78
2019-12-07 13:00:00 6.9 2 Este 11 Este 0 970.6 -0.8 88
2019-12-07 12:00:00 4 4 Este 8 Sur 0 971.3 0.3 98
2019-12-07 11:00:00 2.8 3 Sudeste 8 Sur 0 971.6 1 99
2019-12-07 10:00:00 2 2 Sudeste 5 Este 0 971.4 1.2 99
2019-12-07 09:00:00 0.5 0 Calma 8 Sudeste 0 971 1.3 98
2019-12-07 08:00:00 0.6 4 Nordeste 8 Nordeste 0 970.6 0.8 98
2019-12-07 07:00:00 0.7 3 Sur 5 Sur 0 970.2 0.1 97
2019-12-07 06:00:00 1.5 2 Sur 5 Sur 0 969.7 -0.5 97
2019-12-07 05:00:00 2 2 Norte 5 Sur 0 969.8 -0.3 97
2019-12-07 04:00:00 1.7 6 Sur 8 Sur 0 970.1 -0.6 95
2019-12-07 03:00:00 2.8 3 Oeste 8 Sur 0 970.2 -0.4 96
2019-12-07 02:00:00 2.7 4 Sur 9 Sur 0 970.1 -0.3 97
2019-12-07 01:00:00 3 3 Sur 5 Sur 0 970.7 0.6 96
2019-12-07 00:00:00 3.1 3 Sudeste 8 Sur 0 970.6 1 96
2019-12-06 23:00:00 3.1 4 Sudeste 8 Sur 0 970.4 0.8 95
2019-12-06 22:00:00 4.1 2 Sudeste 9 Sur 0 970.1 1 94
2019-12-06 21:00:00 4.4 10 Sur 13 Sur 0 969.6 1 93
2019-12-06 20:00:00 5.8 0 Calma 11 Sur 0 969.6 1.1 93
2019-12-06 19:00:00 7.6 5 Sur 5 Sur 0 969.1 0.7 87
2019-12-06 18:00:00 9.1 7 Sudeste 9 Sudeste 0 968.6 -0.1 79
2019-12-06 17:00:00 12.5 0 Calma 5 Sur 0 968.5 -1.1 64
2019-12-06 16:00:00 12.2 0 Calma 8 Noroeste 0 968.4 -2 65
2019-12-06 15:00:00 11.2 3 Norte 5 Noroeste 0 968.7 -2.5 67
2019-12-06 14:00:00 10.9 3 Oeste 9 Oeste 0 969.6 -2.2 67
2019-12-06 13:00:00 8.9 3 Oeste 9 Oeste 0 970.4 -1 72
2019-12-06 12:00:00 6.4 3 Sur 8 Oeste 0 971.2 0.2 79
2019-12-06 11:00:00 4.9 4 Oeste 8 Oeste 0 971.8 1.1 84
2019-12-06 10:00:00 2.6 0 Calma 5 Norte 0 971.4 1 92
2019-12-06 09:00:00 0.1 2 Sur 5 Oeste 0 971 0.8 97
2019-12-06 08:00:00 -0.1 3 Oeste 8 Oeste 0 970.7 0.5 97
2019-12-06 07:00:00 0.3 2 Sudeste -- -- 0 970.4 -0.2 96
2019-12-06 06:00:00 0.6 2 Nordeste 11 Sur 0 970.2 -0.2 97
2019-12-06 05:00:00 0.5 9 Sur -- -- 0 970.2 0.1 96
2019-12-06 04:00:00 1.4 0 Calma 8 Nordeste 0 970.6 0.2 95
2019-12-06 03:00:00 1.9 3 Norte 5 Norte 0 970.4 -0.1 95
2019-12-06 02:00:00 2.1 4 Sudoeste 5 Sur 0 970.1 -0.2 94
2019-12-06 01:00:00 2.3 3 Sudeste 8 Sudeste 0 970.4 0.2 94
2019-12-06 00:00:00 2.8 5 Este 8 Sudeste 0 970.5 0.5 93
2019-12-05 23:00:00 3.8 5 Sudeste 13 Sudeste 0 970.3 0.7 91
2019-12-05 22:00:00 5.4 5 Noroeste 11 Norte 0 970.2 1.3 84
2019-12-05 21:00:00 6.6 11 Noroeste 18 Noroeste 0 970 2 81
2019-12-05 20:00:00 7.3 16 Norte 22 Noroeste 0 969.6 2.4 79
2019-12-05 19:00:00 7.7 15 Noroeste 32 Norte 0 968.9 2 74
2019-12-05 18:00:00 8.6 22 Norte 37 Noroeste 0 968 1.4 70
2019-12-05 17:00:00 10.1 25 Noroeste 37 Noroeste 0 967.2 0.5 63
2019-12-05 16:00:00 11.3 27 Noroeste 41 Norte 0 966.9 0 58
2019-12-05 15:00:00 12.4 28 Noroeste 45 Noroeste 0 966.6 -0.6 56
2019-12-05 14:00:00 12.6 25 Noroeste 37 Noroeste 0 966.7 -0.8 55
2019-12-05 13:00:00 12.7 20 Noroeste 32 Norte 0 966.9 -0.1 52
2019-12-05 12:00:00 11.5 22 Noroeste 32 Noroeste 0 967.2 0.5 59
2019-12-05 11:00:00 9.4 19 Noroeste 32 Noroeste 0 967.5 1.1 70
2019-12-05 10:00:00 8.2 24 Norte 33 Norte 0 967 1.3 77
2019-12-05 09:00:00 6.2 17 Norte 28 Norte 0 966.7 1.6 87
2019-12-05 08:00:00 5.1 12 Noroeste 21 Noroeste 0 966.4 1.9 88
2019-12-05 07:00:00 5.5 14 Noroeste 26 Norte 0 965.7 1.5 86
2019-12-05 06:00:00 5.8 15 Noroeste 24 Noroeste 0 965.1 1.2 82
2019-12-05 05:00:00 5.7 13 Noroeste 24 Noroeste 0 964.5 0.8 81
2019-12-05 04:00:00 5.6 15 Noroeste 24 Noroeste 0 964.2 0.7 83
2019-12-05 03:00:00 5.9 13 Noroeste 26 Norte 0 963.9 1.2 82
2019-12-05 02:00:00 6 18 Noroeste 28 Noroeste 0 963.7 2.2 82
2019-12-05 01:00:00 5.5 18 Noroeste 33 Noroeste 0 963.5 2.1 82
2019-12-05 00:00:00 6.2 13 Noroeste -- -- -- 962.7 1.5 84
2019-12-04 23:00:00 6.9 17 Norte 37 Norte 0 961.5 0.5 84
2019-12-04 22:00:00 7.5 15 Norte 32 Norte 0 961.4 0.6 82
2019-12-04 21:00:00 7.6 17 Norte 33 Norte 0 961.2 1.3 81
2019-12-04 20:00:00 7.5 20 Norte 37 Norte 0 961 1.9 82
2019-12-04 19:00:00 7.5 21 Norte 39 Noroeste 0 960.8 2.4 82
2019-12-04 18:00:00 8.9 27 Norte 39 Norte 0 959.9 1.5 66
2019-12-04 17:00:00 10.3 23 Norte 37 Norte 0 959.1 0.1 59
2019-12-04 16:00:00 11.5 5 Este -- -- -- 958.4 -0.9 65
2019-12-04 15:00:00 10.2 3 Este 8 Noroeste 0 958.4 -1.7 66
2019-12-04 14:00:00 9.8 2 Este 9 Sur 0 959 -1.8 64
2019-12-04 13:00:00 8.1 4 Sudeste 13 Oeste 0 959.3 -1.7 68
2019-12-04 12:00:00 5.4 3 Este 8 Este 0 960.1 -0.6 77
2019-12-04 11:00:00 2.9 2 Norte 5 Norte 0 960.8 0.1 85
2019-12-04 10:00:00 0.5 0 Calma 5 Sudeste 0 961 0.5 96
2019-12-04 09:00:00 -1.9 3 Este 8 Oeste 0 960.7 -0.1 97
2019-12-04 08:00:00 -1.9 0 Calma 5 Este 0 960.7 -0.8 97
2019-12-04 07:00:00 -1.9 4 Oeste 8 Oeste 0 960.5 -1.6 97
2019-12-04 06:00:00 -1.9 2 Este 5 Sudoeste 0 960.8 -2 97
2019-12-04 05:00:00 -1.6 3 Sur 5 Nordeste 0 961.5 -2.1 97
2019-12-04 04:00:00 -1.2 0 Calma -- -- 0 962.1 -2 97
2019-12-04 03:00:00 -1 3 Sudeste 5 Sur 0 962.8 -2 97
2019-12-04 02:00:00 -0.9 3 Sudeste 4 Este 0 963.6 -1.3 96
2019-12-04 01:00:00 -0.9 0 Calma 4 Este 0 964.1 -0.6 96
2019-12-04 00:00:00 -0.2 0 Calma -- -- 0 964.8 0.2 95
2019-12-03 23:00:00 -0.2 5 Sur 8 Sur 0 964.9 0.2 95
2019-12-03 22:00:00 0.1 0 Calma 8 Sudoeste 0 964.7 0.1 94
2019-12-03 21:00:00 0.9 0 Calma 5 Sudoeste 0 964.6 0.5 93
2019-12-03 20:00:00 1.4 0 Calma 8 Sur 0 964.7 0.7 91
2019-12-03 19:00:00 1.9 8 Sudoeste 9 Sudoeste 0 964.6 0.4 89
2019-12-03 18:00:00 3.4 5 Oeste 11 Oeste 0 964.1 -0.2 84
2019-12-03 17:00:00 6 7 Oeste 13 Oeste 0 964 -0.9 70
2019-12-03 16:00:00 6.2 7 Noroeste 18 Oeste 0 964.2 -1.5 67
2019-12-03 15:00:00 6.6 12 Noroeste 18 Noroeste 0 964.3 -1.9 66
2019-12-03 14:00:00 5.9 14 Noroeste 24 Noroeste 0 964.9 -1.7 71
2019-12-03 13:00:00 5.1 18 Noroeste 30 Noroeste 0 965.7 -0.7 76
2019-12-03 12:00:00 4.8 23 Noroeste 30 Noroeste 0 966.2 0 77
2019-12-03 11:00:00 4.2 20 Noroeste 30 Noroeste 0 966.6 0.4 78
2019-12-03 10:00:00 3.9 19 Noroeste 30 Norte 0 966.4 0.1 80
2019-12-03 09:00:00 3.4 19 Noroeste 30 Norte 0 966.2 -0.2 82
2019-12-03 08:00:00 3.2 20 Norte 33 Noroeste 0 966.2 -0.7 84
2019-12-03 07:00:00 3.2 20 Noroeste 32 Noroeste 0 966.3 -0.9 84
2019-12-03 06:00:00 3.2 18 Noroeste 33 Noroeste 0 966.4 -1.1 86
2019-12-03 05:00:00 3.3 23 Noroeste 33 Noroeste 0 966.9 -0.9 83
2019-12-03 04:00:00 3.3 21 Noroeste 32 Norte 0 967.2 -0.9 82
2019-12-03 03:00:00 3.3 18 Noroeste 30 Norte 0 967.5 -0.9 83
2019-12-03 02:00:00 3.5 19 Norte 28 Norte 0 967.8 -0.6 81
2019-12-03 01:00:00 3.2 19 Norte 28 Norte 0 968.1 -0.7 85
2019-12-03 00:00:00 3.9 17 Noroeste 30 Norte 0 968.4 -0.3 85
2019-12-02 23:00:00 4.1 20 Norte 32 Norte 0 968.4 0 82
2019-12-02 22:00:00 4.4 26 Norte 37 Norte 0 968.8 0.9 81
2019-12-02 21:00:00 4.6 25 Norte 35 Norte 0 968.7 1 82
2019-12-02 20:00:00 4.5 24 Norte 39 Norte 0 968.4 1.5 87
2019-12-02 19:00:00 4.9 26 Norte 39 Norte 0 967.9 1.4 84
2019-12-02 18:00:00 5.8 23 Norte 41 Norte 0 967.7 1.7 84
2019-12-02 17:00:00 6.9 22 Norte 41 Norte 0 966.9 0.7 77
2019-12-02 16:00:00 7.8 27 Norte 39 Norte 0 966.5 0.1 75
2019-12-02 15:00:00 8.6 19 Norte 33 Norte 0 966 -0.6 70
2019-12-02 14:00:00 8.1 23 Norte 32 Norte 0 966.2 -0.4 78
2019-12-02 13:00:00 8.6 21 Norte 33 Norte 0 966.4 0.3 77
2019-12-02 12:00:00 8.4 22 Norte 32 Norte 0 966.6 1.1 77
2019-12-02 11:00:00 7.9 16 Norte 28 Noroeste 0 966.6 1.6 81
2019-12-02 10:00:00 7.4 19 Noroeste 32 Norte 0 966.1 1.6 85
2019-12-02 09:00:00 6.8 21 Norte 30 Norte 0 965.5 1.6 86
2019-12-02 08:00:00 5.7 10 Norte 21 Noroeste 0 965 1.4 88
2019-12-02 07:00:00 5.8 16 Noroeste 24 Norte 0 964.5 1.1 90
2019-12-02 06:00:00 5.7 14 Norte 21 Norte 0 963.9 0.8 90
2019-12-02 05:00:00 5.8 13 Noroeste 18 Noroeste 0 963.6 0.9 88
2019-12-02 04:00:00 5.2 11 Noroeste 15 Noroeste 0 963.4 0.8 88
2019-12-02 03:00:00 5.5 9 Noroeste 15 Noroeste 0 963.1 0.7 87
2019-12-02 02:00:00 5.9 12 Noroeste 22 Norte 0 962.7 0.6 88
2019-12-02 01:00:00 5.9 10 Noroeste 22 Noroeste 0 962.6 0.9 89
2019-12-02 00:00:00 6.4 16 Norte 21 Norte 0 962.4 1.1 90
2019-12-01 23:00:00 5.4 7 Norte 17 Norte 0 962.1 1.1 92
2019-12-01 22:00:00 5.8 14 Norte 22 Norte 0 961.7 1.4 92
2019-12-01 21:00:00 5.5 4 Noroeste 13 Noroeste 0 961.3 1.4 93
2019-12-01 20:00:00 6.5 5 Norte 11 Noroeste 0 961 1.6 91
2019-12-01 19:00:00 7.3 6 Noroeste 9 Noroeste 0 960.3 1.2 88
2019-12-01 18:00:00 8.3 4 Oeste 11 Norte 0 959.9 0.6 83
2019-12-01 17:00:00 9.9 10 Noroeste 15 Noroeste 0 959.4 -0.2 81
2019-12-01 16:00:00 10.3 3 Sudoeste 9 Norte 0 959.1 -1 76
2019-12-01 15:00:00 10.8 2 Oeste 8 Sudeste 0 959.3 -1 75
2019-12-01 14:00:00 9.5 3 Sudoeste 9 Oeste 0 959.6 -0.8 80
2019-12-01 13:00:00 7.3 4 Noroeste 9 Noroeste 0 960.1 0.2 92
2019-12-01 12:00:00 6.5 3 Oeste 8 Nordeste 0 960.3 0.7 96
2019-12-01 11:00:00 5.6 2 Sudoeste 8 Noroeste 0 960.4 1.1 98
2019-12-01 10:00:00 4.9 4 Oeste 8 Oeste 0 959.9 1 99
2019-12-01 09:00:00 4.6 2 Sur 9 Nordeste 0 959.6 0.7 99
2019-12-01 08:00:00 4.5 0 Calma 8 Noroeste 0 959.3 0.4 99
2019-12-01 07:00:00 4.5 6 Sudeste 9 Sudeste 0 958.9 -0.6 99
2019-12-01 06:00:00 4.6 5 Sur 9 Sur 0 958.9 -0.5 99
2019-12-01 05:00:00 4.9 4 Este 11 Este 0 958.9 -1 99
2019-12-01 04:00:00 5.3 5 Sudoeste 9 Sudoeste 0 959.5 -1.1 99
2019-12-01 03:00:00 5.7 0 Calma 11 Este 0 959.4 -1.2 99
2019-12-01 02:00:00 4.5 4 Este -- -- 0 959.9 -0.9 99
2019-12-01 01:00:00 5.3 -- -- -- -- 0 960.6 -0.6 98
2019-12-01 00:00:00 6.3 4 Noroeste 8 Norte 0 960.6 -0.4 98
2019-11-30 23:00:00 6.7 5 Noroeste 8 Noroeste 0 960.8 0.1 98
2019-11-30 22:00:00 7.2 7 Noroeste 9 Norte 0 961.2 -0.9 97
2019-11-30 21:00:00 7.4 0 Calma 11 Sur 0 961 0.1 98
2019-11-30 20:00:00 7.6 10 Sudeste 21 Sudeste 0.8 960.7 -0.6 98
2019-11-30 19:00:00 7.8 4 Noroeste 13 Oeste 4.6 962.1 2.8 99
2019-11-30 18:00:00 7.8 0 Calma 26 Norte 5.8 960.9 1.4 98
2019-11-30 17:00:00 8.1 16 Norte 61 Norte 12.5 961.3 0.6 98
2019-11-30 16:00:00 12.8 18 Noroeste 33 Noroeste 0.2 959.3 -2.7 85
2019-11-30 15:00:00 14.5 7 Nordeste 21 Sur 0 959.5 -3.8 73
2019-11-30 14:00:00 14.7 6 Norte 13 Norte 0 960.7 -3.2 70
2019-11-30 13:00:00 14.3 9 Norte 15 Norte 0 962 -2 68
2019-11-30 12:00:00 11.8 11 Norte 15 Norte 0 963.3 -0.8 77
2019-11-30 11:00:00 9 8 Noroeste 13 Oeste 0 963.9 -0.2 85
2019-11-30 10:00:00 7.8 5 Noroeste 11 Oeste 0 964 -0.6 87
2019-11-30 09:00:00 5.9 9 Oeste 17 Oeste 0 964.1 -1.1 93
2019-11-30 08:00:00 5.5 7 Oeste 9 Oeste 0 964.1 -1.2 94
2019-11-30 07:00:00 5.5 6 Oeste 11 Norte 0 964.6 -1.2 94
2019-11-30 06:00:00 5 7 Oeste 13 Oeste 0 965.2 -1 97
2019-11-30 05:00:00 4.6 6 Oeste 8 Oeste 0 965.3 -1.3 97
2019-11-30 04:00:00 4.1 8 Noroeste 11 Oeste 0 965.8 -1.2 97
2019-11-30 03:00:00 3.4 0 Calma 9 Sudeste 0 966.2 -1.3 97
2019-11-30 02:00:00 3.7 5 Noroeste 8 Noroeste 0 966.6 -0.8 96
2019-11-30 01:00:00 4.3 5 Sudeste 5 Este 0 967 -0.3 95
2019-11-30 00:00:00 5.1 0 Calma -- -- -- 967.5 0.1 94
2019-11-29 23:00:00 5.7 4 Este 8 Nordeste 0 967.4 0.2 91
2019-11-29 22:00:00 6.5 4 Norte 5 Norte 0 967.3 0.3 89
2019-11-29 21:00:00 6.9 0 Calma 5 Sur 0 967.4 0.7 88
2019-11-29 20:00:00 7.9 5 Sudoeste 8 Sudoeste 0 967.2 0.9 84
2019-11-29 19:00:00 9.5 2 Sur -- -- 0 967 0.9 77
2019-11-29 18:00:00 10.5 5 Sur 9 Nordeste 0 966.7 0.5 75
2019-11-29 17:00:00 14.2 2 Norte 13 Norte 0 966.3 -0.3 52
2019-11-29 16:00:00 14.3 6 Norte 17 Norte 0 966.1 -0.9 53
2019-11-29 15:00:00 15.7 13 Noroeste 24 Norte 0 966.2 -1.2 52
2019-11-29 14:00:00 14.9 14 Norte 26 Norte 0 966.6 -0.7 53
2019-11-29 13:00:00 15.2 16 Noroeste 30 Norte 0 967 0.4 58
2019-11-29 12:00:00 14.7 12 Noroeste 26 Norte 0 967.4 1.5 64
2019-11-29 11:00:00 13.3 11 Norte 18 Norte 0 967.3 2.2 73
2019-11-29 10:00:00 11.4 0 Calma 9 Noroeste 0 966.6 2.2 81
2019-11-29 09:00:00 10.9 4 Norte 15 Norte 0 965.9 2.5 82
2019-11-29 08:00:00 10.6 10 Norte 15 Norte 0 965.1 2.4 84
2019-11-29 07:00:00 10.9 9 Norte 15 Norte 0 964.4 2.4 86
2019-11-29 06:00:00 10.1 8 Norte 17 Norte 0 963.4 2 97
2019-11-29 05:00:00 10.1 3 Sur 5 Sur 0 962.7 2 96
2019-11-29 04:00:00 10.5 4 Oeste 13 Norte 1.3 962 1.5 96
2019-11-29 03:00:00 11.3 4 Norte 11 Sur 0 961.4 1.3 88
2019-11-29 02:00:00 11.8 7 Sur -- -- -- 960.7 0.7 85
2019-11-29 01:00:00 11.4 4 Norte 11 Norte 0 960.5 0.7 86
2019-11-29 00:00:00 10.8 10 Sudeste 13 Sudeste 0 960.1 0.4 88
2019-11-28 23:00:00 10.6 10 Sudeste 15 Sudeste 0 960 0.6 91
2019-11-28 22:00:00 10.4 0 Calma 8 Sudoeste 0 959.8 0.5 94
2019-11-28 21:00:00 10.4 5 Oeste 13 Noroeste 0 959.7 0.6 95
2019-11-28 20:00:00 10.5 6 Sur 11 Sudeste 0.1 959.4 0.8 95
2019-11-28 19:00:00 10.9 4 Este 9 Este 0.2 959.3 0.4 92
2019-11-28 18:00:00 11.4 8 Oeste 18 Sur 0 959.1 0.3 88
2019-11-28 17:00:00 11.3 10 Sudeste 22 Sur 0.8 958.6 -0.7 90
2019-11-28 16:00:00 13.2 8 Oeste 22 Sudoeste 0 958.9 -0.7 75
2019-11-28 15:00:00 14.1 12 Sur 26 Sur 0 958.8 -1.5 71
2019-11-28 14:00:00 13.8 14 Sur 26 Sudoeste 0 959.3 -1 71
2019-11-28 13:00:00 13 10 Sudoeste 22 Sur 0 959.6 -0.3 73
2019-11-28 12:00:00 12.7 8 Sudeste 18 Sur 0 960.3 1 75
2019-11-28 11:00:00 12.4 9 Sudeste 15 Sudeste 0 960.3 1.7 76
2019-11-28 10:00:00 11.5 4 Sudeste 18 Sur 0 959.9 1.8 79
2019-11-28 09:00:00 10.2 5 Sur 9 Sur 0 959.3 1.4 81
2019-11-28 08:00:00 9.2 6 Sur 13 Sudeste 0 958.6 1.1 83
2019-11-28 07:00:00 10.2 9 Sudoeste 18 Sudoeste 0 958.1 0.9 80
2019-11-28 06:00:00 9.6 4 Sur 28 Oeste 0 957.9 0.8 81
2019-11-28 05:00:00 10.6 15 Oeste 28 Oeste 0 957.5 0.3 77
2019-11-28 04:00:00 10.1 5 Sudoeste 24 Sudoeste 0 957.2 -0.3 79
2019-11-28 03:00:00 10.3 15 Sudoeste 32 Oeste 0 957.1 -0.3 78
2019-11-28 02:00:00 10.6 18 Oeste 28 Oeste 0 957.2 -0.1 78
2019-11-28 01:00:00 9.1 6 Sudeste 21 Sudeste 0 957.5 0.3 88
2019-11-28 00:00:00 9.4 5 Nordeste 22 Oeste 0 957.4 0.1 88
2019-11-27 23:00:00 10.1 7 Sur 21 Sudoeste 0 957.3 -0.1 85
2019-11-27 22:00:00 9.4 14 Sur 22 Sur 0.4 957.2 0.3 91
2019-11-27 21:00:00 9.5 11 Sudoeste 28 Sur 0.2 957.3 0.6 91
2019-11-27 20:00:00 9.7 15 Sur 24 Sur 0.3 957.4 0.9 90
2019-11-27 19:00:00 9.6 12 Sur 15 Sur 0.1 956.9 1 90
2019-11-27 18:00:00 10.1 9 Sur 30 Sudoeste 0.6 956.7 1.4 86
2019-11-27 17:00:00 10.8 14 Sur 21 Sur 0.1 956.5 0.9 84
2019-11-27 16:00:00 13.2 14 Sudoeste -- -- -- 955.9 -0.2 62
2019-11-27 15:00:00 13.6 17 Sudoeste 33 Oeste 0 955.3 -1.2 62
2019-11-27 14:00:00 14.7 17 Oeste 35 Oeste 0 955.6 -1.1 56
2019-11-27 06:00:00 9.9 8 Noroeste 42 Oeste 0 953.6 1.3 67
2019-11-27 05:00:00 10.6 25 Oeste 59 Oeste 0 953.1 1.2 66
2019-11-27 04:00:00 11 25 Oeste 55 Oeste 0 952.4 0.8 67
2019-11-27 03:00:00 11.7 27 Oeste 42 Oeste 0 952.3 0.8 68
2019-11-27 02:00:00 12 22 Oeste 45 Sudoeste 0 951.9 0 74
2019-11-27 01:00:00 12.4 14 Sudoeste 46 Sudoeste 0 951.6 0.1 75
2019-11-27 00:00:00 12.8 23 Sudoeste 46 Oeste 0.9 951.5 1.1 82
2019-11-26 23:00:00 12.9 20 Sudoeste 46 Sur 1.5 951.9 1.7 86
2019-11-26 22:00:00 13.3 21 Sudoeste 58 Sur 0.9 951.5 0.5 81
2019-11-26 21:00:00 13.8 44 Sur 68 Sur 0.5 950.4 -1.1 81
2019-11-26 20:00:00 15.3 39 Sur 63 Sur 0 950.2 -2.1 67
2019-11-26 19:00:00 15.2 45 Sur 63 Sur 0 951 -2.2 68
2019-11-26 18:00:00 14.9 21 Sur 35 Sudeste 0 951.5 -2.8 69
2019-11-26 17:00:00 16 25 Sur 39 Sur 0 952.3 -3 66
2019-11-26 16:00:00 16.5 14 Sudeste 26 Sudeste 0 953.2 -3.2 65
2019-11-26 15:00:00 15.4 4 Sudeste 18 Sur 0 954.3 -3.3 66
2019-11-26 14:00:00 14 4 Sur 13 Sur 0 955.3 -3.1 70
2019-11-26 13:00:00 13.3 8 Noroeste 11 Noroeste 0 956.4 -2.3 72
2019-11-26 12:00:00 11.9 5 Noroeste 11 Noroeste 0 957.6 -0.7 76
2019-11-26 11:00:00 10.8 7 Noroeste 11 Norte 0 958.4 -0.1 81
2019-11-26 10:00:00 9.3 4 Nordeste 11 Noroeste 0 958.7 0.3 86
2019-11-26 09:00:00 6.2 3 Este 9 Noroeste 0 958.3 -0.4 97
2019-11-26 08:00:00 5.5 4 Oeste 9 Noroeste 0 958.5 -0.8 97
2019-11-26 07:00:00 5.8 3 Norte 11 Noroeste 0 958.4 -1 97
2019-11-26 06:00:00 6 3 Sudoeste 13 Noroeste 0 958.7 -1 96
2019-11-26 05:00:00 6.3 4 Norte 13 Sur 0 959.3 -0.3 96
2019-11-26 04:00:00 5.8 5 Este 9 Norte 0 959.4 -0.6 96
2019-11-26 03:00:00 6.3 6 Oeste 15 Sur 0 959.7 -0.3 94
2019-11-26 02:00:00 6.6 4 Este 11 Sudeste 0 959.6 -1 94
2019-11-26 01:00:00 6.8 6 Sudeste -- -- -- 960 -0.7 94
2019-11-26 00:00:00 6.5 5 Este 8 Este 0 960 -0.7 97
2019-11-25 23:00:00 6.6 4 Este 11 Sur 0 960.6 0.2 95
2019-11-25 22:00:00 7.5 8 Sur 11 Sur 0 960.7 0.7 96
2019-11-25 21:00:00 8.3 6 Sur 8 Sur 0 960.7 1 94
2019-11-25 20:00:00 9.7 0 Calma -- -- 0 960.4 0.9 93
2019-11-25 19:00:00 10.8 3 Sudeste 8 Este 0 960 1.1 87
2019-11-25 18:00:00 12 3 Nordeste 11 Sur 0 959.7 0.5 84
2019-11-25 17:00:00 13.9 6 Oeste 11 Sudeste 0 959.5 0.4 78
2019-11-25 16:00:00 14.7 8 Sudeste 13 Sudeste 0 958.9 -0.4 67
2019-11-25 15:00:00 14.8 3 Nordeste 9 Norte 0 959.2 -0.3 68
2019-11-25 14:00:00 13.4 4 Norte 9 Norte 0 959.1 -0.7 74
2019-11-25 13:00:00 12.8 4 Noroeste 11 Norte 0 959.3 -0.1 75
2019-11-25 12:00:00 12.1 4 Oeste 8 Oeste 0 959.5 0.3 77
2019-11-25 11:00:00 10 4 Sudoeste 8 Oeste 0 959.8 1.5 82
2019-11-25 10:00:00 8.3 2 Norte 8 Norte 0 959.4 1.3 89
2019-11-25 09:00:00 7.1 4 Sur 9 Nordeste 0 959.2 1.5 96
2019-11-25 08:00:00 6.5 5 Este 8 Este 0 958.3 0.4 97
2019-11-25 07:00:00 6.5 2 Sur 5 Oeste 0 958.1 0.1 97
2019-11-25 06:00:00 6.4 0 Calma 8 Sudoeste 0 957.7 -0.5 96
2019-11-25 05:00:00 6.8 3 Oeste 8 Sur 0 957.9 -0.5 96
2019-11-25 04:00:00 6.9 3 Sudoeste 5 Sudoeste 0 958 -0.6 95
2019-11-25 03:00:00 6.9 2 Oeste 8 Este 0 958.2 -0.7 94
2019-11-25 02:00:00 7 4 Sudoeste 21 Sur 0 958.4 -0.5 92
2019-11-25 01:00:00 6.6 15 Sur 21 Sur 0 958.6 -0.3 94
2019-11-25 00:00:00 6.7 10 Sudeste 17 Sudeste 1.2 958.9 0.8 93
2019-11-24 23:00:00 6.9 15 Sur 18 Sur 2.2 958.9 0.6 92
2019-11-24 22:00:00 7.1 14 Sur 21 Sur 0 958.9 0.5 86
2019-11-24 21:00:00 7.1 17 Sur 21 Sur 0 958.1 -0.3 85
2019-11-24 20:00:00 6.9 12 Sur 17 Sur 0 958.3 -0.4 87
2019-11-24 19:00:00 7 8 Sur 15 Sudeste 0 958.4 -0.3 88
2019-11-24 18:00:00 8.3 8 Sur 9 Sur 0 958.4 -0.8 82
2019-11-24 17:00:00 10.2 0 Calma 9 Sudoeste 0 958.7 -0.8 73
2019-11-24 16:00:00 9.7 3 Norte 21 Oeste 0 958.7 -1.1 75
2019-11-24 15:00:00 10.7 14 Oeste 24 Oeste 0 959.2 -1 75
2019-11-24 14:00:00 9.7 13 Oeste 28 Oeste 0 959.5 -0.6 78
2019-11-24 13:00:00 8.8 9 Sur 17 Sur 0 959.8 0.1 86
2019-11-24 12:00:00 7.8 14 Sur 18 Sur 0 960.2 1 89
2019-11-24 11:00:00 7.6 5 Sur 9 Sur 0 960.1 1.5 88
2019-11-24 10:00:00 7.1 4 Sur 11 Este 0 959.7 2 92
2019-11-24 09:00:00 5.7 5 Este 13 Este 0 959.2 1.5 94
2019-11-24 08:00:00 5.4 6 Sur 11 Sudeste 0.3 958.6 1.4 96
2019-11-24 07:00:00 5.2 5 Sudeste 8 Sudeste 0.2 957.7 0.9 95
2019-11-24 06:00:00 5.4 6 Este -- -- 0.7 957.7 1.4 96
2019-11-24 05:00:00 5.4 4 Norte 5 Norte 1 957.2 1.2 94
2019-11-24 04:00:00 5.7 4 Sudoeste 13 Norte 0.2 956.8 1 91
2019-11-24 03:00:00 5.8 13 Noroeste 24 Noroeste 0.8 956.3 0.9 90
2019-11-24 02:00:00 6.3 6 Noroeste 17 Norte 0 956 1.3 92
2019-11-24 01:00:00 6.4 6 Noroeste 13 Noroeste 0.4 955.8 1.4 93
2019-11-24 00:00:00 6.6 9 Noroeste 18 Noroeste 0.1 955.4 1.9 91
2019-11-23 23:00:00 6.6 8 Noroeste 17 Noroeste 0 954.7 1.9 90
2019-11-23 22:00:00 6.5 13 Norte 21 Noroeste 0.4 954.4 2.1 93
2019-11-23 21:00:00 6.4 7 Oeste 21 Norte 0.1 953.5 2.3 91
2019-11-23 20:00:00 6.6 13 Norte 18 Norte 0.5 952.8 3.1 91
2019-11-23 19:00:00 6.8 7 Noroeste 28 Noroeste 1 952.3 3.7 90
2019-11-23 18:00:00 7.4 27 Noroeste 42 Noroeste 0.7 951.2 3.6 83
2019-11-23 17:00:00 7.8 22 Noroeste 45 Noroeste 0.1 949.7 3 81
2019-11-23 16:00:00 7.7 15 Noroeste 45 Noroeste 1 948.6 2.9 85
2019-11-23 15:00:00 7.8 26 Noroeste 37 Noroeste 0.5 947.6 3 84
2019-11-23 14:00:00 7.7 16 Noroeste 30 Noroeste 0.4 946.7 3.2 85
2019-11-23 13:00:00 7.9 20 Noroeste 45 Noroeste 0.1 945.7 3.6 83
2019-11-23 12:00:00 7.6 26 Noroeste 41 Noroeste 0.7 944.6 3.7 86
2019-11-23 11:00:00 6.6 14 Oeste 33 Oeste 2.3 943.5 4.1 91
2019-11-23 10:00:00 5.8 20 Oeste 28 Sudoeste 3.8 942.1 4 89
2019-11-23 09:00:00 6.1 14 Oeste 26 Oeste 3 940.9 3.3 89
2019-11-23 08:00:00 7 18 Oeste 32 Oeste 1 939.4 2.9 86
2019-11-23 07:00:00 7.5 18 Sudoeste 35 Sudoeste 0.7 938.1 2 81
2019-11-23 06:00:00 7.3 14 Oeste 35 Sudoeste 1.1 937.6 1.8 88
2019-11-23 05:00:00 9.7 21 Sudoeste 42 Sudoeste 0 936.5 0.8 69
2019-11-23 04:00:00 8.7 6 Sur 21 Sudoeste 0 936.1 0.4 81
2019-11-23 03:00:00 8.2 6 Sudoeste 11 Oeste 0 935.8 -0.1 85
2019-11-23 02:00:00 8.4 4 Sur 11 Noroeste 0 935.7 -0.2 84
2019-11-23 01:00:00 9.6 6 Sudeste 30 Sur 0 935.7 -0.4 78
2019-11-23 00:00:00 9.4 6 Norte 22 Sur 0 935.9 -0.1 80
2019-11-22 23:00:00 9.7 14 Sur 39 Sudoeste 0 935.9 -0.1 78
2019-11-22 22:00:00 10.5 28 Sur 45 Sur 0 936.1 0.9 77
2019-11-22 21:00:00 11.2 16 Sur 50 Sur 0 936 -0.4 78
2019-11-22 20:00:00 12.1 30 Sur 67 Sur 0 936 -1.5 72
2019-11-22 19:00:00 9.7 39 Sudeste 59 Sudeste 0.2 935.2 -2.6 85
2019-11-22 18:00:00 9.8 39 Sudeste 67 Sudeste 0 936.4 -2.5 81
2019-11-22 17:00:00 9.6 32 Sudeste 61 Sudeste 0.1 937.5 -2.9 82
2019-11-22 16:00:00 9.4 38 Sudeste 63 Sudeste 0 937.8 -4.2 81
2019-11-22 15:00:00 9.3 40 Sudeste 68 Sudeste 0 938.9 -4.8 81
2019-11-22 14:00:00 9.6 45 Sudeste 71 Este 0 940.4 -4.8 76
2019-11-22 13:00:00 8.6 37 Sudeste 63 Sudeste 0 942 -4.1 83
2019-11-22 12:00:00 8.5 37 Sudeste 63 Este 0.2 943.7 -3.7 84
2019-11-22 11:00:00 8 41 Sudeste 63 Sudeste 0.4 945.2 -2.8 84
2019-11-22 10:00:00 7.8 34 Sudeste 48 Este 0.2 946.1 -2.5 83
2019-11-22 09:00:00 8.5 30 Sudeste 46 Sudeste 0 947.4 -2.3 75
2019-11-22 08:00:00 8.3 25 Sudeste 42 Sudeste 0 948 -2.5 76
2019-11-22 07:00:00 8.4 29 Sudeste 42 Sudeste 0 948.6 -2.2 73
2019-11-22 06:00:00 8.4 22 Sur 32 Sur 0 949.7 -1.9 73
2019-11-22 05:00:00 7.4 16 Sudeste 33 Este 0 950.5 -1.6 76
2019-11-22 04:00:00 7.2 21 Sudeste 32 Sudeste 0 950.8 -1.9 77
2019-11-22 03:00:00 6.9 20 Sudeste 35 Sur 0 951.6 -1.5 80
2019-11-22 02:00:00 7.1 14 Sudeste 24 Sudeste 0 952.1 -1.4 80
2019-11-22 01:00:00 5.6 10 Sudoeste 17 Sur 0 952.7 -1.1 87
2019-11-22 00:00:00 4.8 3 Nordeste 11 Nordeste 0 953.1 -0.8 91
2019-11-21 23:00:00 4 6 Noroeste 13 Oeste 0 953.5 -0.1 95
2019-11-21 22:00:00 4.4 3 Noroeste 9 Sudeste 0 953.8 0.4 91
2019-11-21 21:00:00 5.4 3 Oeste 9 Sudoeste 0 953.9 0.7 88
2019-11-21 20:00:00 6.5 8 Sudeste 13 Sudeste 0 953.6 0.5 79
2019-11-21 19:00:00 7.9 8 Sur 11 Sudeste 0 953.4 0.6 77
2019-11-21 18:00:00 9 7 Sur 21 Sur 0 953.2 0.6 73
2019-11-21 17:00:00 10.5 15 Sur 26 Sur 0 953.1 0.3 69
2019-11-21 16:00:00 12.2 16 Sudoeste 28 Sur 0 952.8 -0.2 61
2019-11-21 15:00:00 11 15 Sur 30 Sur 0 952.6 -1.2 64
2019-11-21 14:00:00 10.9 20 Sur 32 Sur 0 952.8 -1.3 65
2019-11-21 13:00:00 10.4 22 Sur 30 Sur 0 953 -1 65
2019-11-21 12:00:00 9.7 8 Norte 13 Noroeste 0 953.8 0 72
2019-11-21 11:00:00 8 3 Oeste 13 Noroeste 0 954.1 0.8 76
2019-11-21 10:00:00 7 7 Noroeste 13 Norte 0 954 1 82
2019-11-21 09:00:00 6.7 4 Sur 17 Sur 0 953.8 0.4 80
2019-11-21 08:00:00 5.2 3 Norte 17 Sudeste 0 953.3 0 89
2019-11-21 07:00:00 6 6 Sudeste 17 Sudeste 0 953 -0.4 83
2019-11-21 06:00:00 6.5 4 Sudoeste 17 Sudeste 0 953.4 -0.2 83
2019-11-21 05:00:00 6.4 6 Sur 15 Sudeste 0 953.3 -0.5 83
2019-11-21 04:00:00 6.5 4 Sudeste 21 Sudeste 0 953.4 -0.7 82
2019-11-21 03:00:00 6.6 17 Sudeste 24 Sudeste 0 953.6 -0.7 81
2019-11-21 02:00:00 6.1 6 Sudeste 15 Sudeste 0 953.8 -0.7 86
2019-11-21 01:00:00 6.5 11 Sudeste 26 Sudeste 0 954.1 -0.4 82
2019-11-21 00:00:00 6.8 13 Este 33 Sudeste 0 954.3 0.2 77
2019-11-20 23:00:00 6.8 25 Sudeste 35 Sudeste 0 954.5 0.5 74
2019-11-20 22:00:00 7.2 22 Sudeste 42 Sudeste 0 954.5 0.5 72
2019-11-20 21:00:00 8 20 Sudeste 37 Sudeste 0 954.1 -0.1 63
2019-11-20 20:00:00 8.2 23 Sudeste 35 Sudeste 0 954 -0.3 59
2019-11-20 19:00:00 8.2 22 Sudeste 32 Sudeste 0 954 -0.5 62
2019-11-20 18:00:00 8.3 16 Sudeste 26 Sudeste 0 954.2 -0.5 64
2019-11-20 17:00:00 9.4 16 Sudeste 33 Sudeste 0 954.3 -1.2 59
2019-11-20 16:00:00 10 15 Sudeste 22 Sudeste 0 954.5 -2 58
2019-11-20 15:00:00 10.9 10 Sur 22 Sur 0 954.7 -2.7 55
2019-11-20 14:00:00 10.3 5 Sur 11 Noroeste 0 955.5 -2.7 58
2019-11-20 13:00:00 8.5 6 Noroeste 11 Noroeste 0 956.5 -2 68
2019-11-20 12:00:00 6 4 Noroeste 9 Oeste 0 957.4 -1.1 78
2019-11-20 11:00:00 3.7 2 Norte 5 Nordeste 0 958.2 0 84
2019-11-20 10:00:00 1.7 0 Calma 8 Norte 0 958.5 0.2 94
2019-11-20 09:00:00 -0.8 0 Calma 5 Sudoeste 0 958.5 0 96
2019-11-20 08:00:00 -0.9 0 Calma -- -- 0 958.2 -0.7 97
2019-11-20 07:00:00 -0.6 2 Oeste 8 Oeste 0 958.3 -1 96
2019-11-20 06:00:00 -0.3 3 Norte 5 Norte 0 958.5 -1.1 95
2019-11-20 05:00:00 0 0 Calma 5 Sudeste 0 958.9 -0.8 96
2019-11-20 04:00:00 0.3 2 Este 5 Sudeste 0 959.3 -0.9 95
2019-11-20 03:00:00 0.7 4 Oeste -- -- 0 959.6 -1 94
2019-11-20 02:00:00 1.1 6 Noroeste 8 Noroeste 0 959.7 -1.1 90
2019-11-20 01:00:00 1.9 0 Calma 4 Sur 0 960.2 -0.5 88
2019-11-20 00:00:00 2.4 0 Calma 9 Sur 0 960.6 0 87
2019-11-19 23:00:00 2.5 4 Sur 9 Sur 0 960.8 0 87
2019-11-19 22:00:00 3.2 5 Este 11 Sur 0 960.7 0.1 86
2019-11-19 21:00:00 3.2 4 Sudeste 5 Sudeste 0 960.6 0 86
2019-11-19 20:00:00 4.1 4 Nordeste 8 Sudeste 0 960.8 0.2 83
2019-11-19 19:00:00 4.5 10 Sur 13 Sur 0 960.6 -0.2 84
2019-11-19 18:00:00 6.4 7 Sudoeste 15 Sudoeste 0 960.6 -0.4 75
2019-11-19 17:00:00 10.3 4 Noroeste 11 Noroeste 0 960.6 -0.9 54
2019-11-19 16:00:00 10.8 6 Noroeste 17 Norte 0 960.8 -1.4 50
2019-11-19 15:00:00 11.1 6 Noroeste 21 Norte 0 961 -2.2 49
2019-11-19 14:00:00 11.1 13 Noroeste 22 Noroeste 0 961.5 -2.3 53
2019-11-19 13:00:00 9.4 15 Noroeste 24 Noroeste 0 962.2 -1.8 57
2019-11-19 12:00:00 8.4 10 Noroeste 17 Noroeste 0 963.2 -1 71
2019-11-19 11:00:00 6.7 8 Oeste 13 Oeste 0 963.8 -0.1 79
2019-11-19 10:00:00 4.1 8 Nordeste 13 Nordeste 0 964 0.4 84
2019-11-19 09:00:00 1 4 Oeste 9 Sudeste 0 964.2 0.4 93
2019-11-19 08:00:00 0.1 5 Sudeste 8 Sudeste 0 963.9 -0.2 95
2019-11-19 07:00:00 -0.4 5 Sudoeste 13 Sudoeste 0 963.6 -0.8 95
2019-11-19 06:00:00 0.2 6 Oeste 11 Oeste 0 963.8 -0.6 93
2019-11-19 05:00:00 0.9 4 Nordeste 9 Nordeste 0 964.1 -0.2 95
2019-11-19 04:00:00 1 3 Este 8 Sudeste 0 964.4 -0.3 96
2019-11-19 03:00:00 0.9 5 Sudeste 8 Sudeste 0 964.4 -0.3 93
2019-11-19 02:00:00 0.3 0 Calma 9 Oeste 0 964.3 -0.5 94
2019-11-19 01:00:00 0.4 3 Este 11 Sudoeste 0 964.7 -0.1 92
2019-11-19 00:00:00 1 5 Oeste 9 Sudeste 0 964.7 0.2 92
2019-11-18 23:00:00 1.9 6 Sudeste 22 Norte 0 964.8 0.3 86
2019-11-18 22:00:00 3.3 17 Noroeste 24 Norte 0 964.8 0.8 84
2019-11-18 21:00:00 3.4 18 Norte 24 Norte 0 964.5 1.3 83
2019-11-18 20:00:00 3.7 14 Noroeste 22 Noroeste 0 964.5 1.4 82
2019-11-18 19:00:00 4.5 17 Norte 32 Norte 0 964 1.3 77
2019-11-18 18:00:00 5.5 21 Norte 30 Norte 0 963.2 0.9 74
2019-11-18 17:00:00 5.8 16 Norte 37 Norte 0 963.1 1.2 72
2019-11-18 16:00:00 6.2 24 Norte 39 Norte 0 962.7 0.7 68
2019-11-18 15:00:00 6.3 21 Norte 33 Noroeste 0 962.3 0.5 69
2019-11-18 14:00:00 6.6 22 Noroeste 33 Norte 0 961.9 0.2 69
2019-11-18 13:00:00 6.3 21 Norte 33 Norte 0 962 1.1 70
2019-11-18 12:00:00 5.6 22 Noroeste 32 Noroeste 0 961.8 1.7 75
2019-11-18 11:00:00 5.8 18 Noroeste 28 Noroeste 0 961.7 2.1 76
2019-11-18 10:00:00 4.9 13 Noroeste 24 Norte 0 960.9 1.9 80
2019-11-18 09:00:00 4.2 6 Nordeste 24 Norte 0 960.1 1.7 82
2019-11-18 08:00:00 3.7 12 Noroeste 22 Norte 0 959.6 1.8 85
2019-11-18 07:00:00 3.6 10 Norte 18 Norte 0 959 1.8 91
2019-11-18 06:00:00 4.1 12 Noroeste 37 Norte 0.1 958.4 1.7 90
2019-11-18 05:00:00 4.6 14 Norte 24 Noroeste 0.2 957.8 1.5 93
2019-11-18 04:00:00 4.7 11 Noroeste 22 Oeste 0.3 957.2 1.3 93
2019-11-18 03:00:00 4.2 9 Norte 24 Noroeste 0.1 956.7 1.2 93
2019-11-18 02:00:00 5.1 17 Noroeste 22 Norte 0.3 956.3 1.1 92
2019-11-18 01:00:00 5.2 6 Norte 9 Noroeste 0.9 955.9 0.9 98
2019-11-18 00:00:00 5.1 6 Norte -- -- 0 955.5 0.5 97
2019-11-17 23:00:00 5.1 3 Nordeste 8 Nordeste 0 955.2 0.1 96
2019-11-17 22:00:00 4.5 4 Oeste 9 Oeste 0 955 0 96
2019-11-17 21:00:00 4.9 5 Nordeste 11 Nordeste 0 955 -0.2 95
2019-11-17 20:00:00 6 2 Sur 11 Sur 0 955.1 0 93
2019-11-17 19:00:00 6.1 6 Nordeste 9 Nordeste 0 955 -0.3 94
2019-11-17 18:00:00 6.9 3 Sudoeste 13 Nordeste 0 955.2 -0.2 92
2019-11-17 17:00:00 7.3 11 Nordeste 15 Nordeste 0 955.1 -0.8 92
2019-11-17 16:00:00 7.8 4 Este 5 Este 0 955.3 -0.9 86
2019-11-17 15:00:00 7.6 3 Este 13 Nordeste 0 955.4 -1.6 86
2019-11-17 14:00:00 7.5 7 Norte 11 Norte 0 955.9 -1.7 88
2019-11-17 13:00:00 7 6 Este 13 Nordeste 0.1 956.2 -1.2 91
2019-11-17 12:00:00 5.5 4 Este 9 Nordeste 0.4 957 -0.5 93
2019-11-17 11:00:00 5.1 4 Norte 8 Norte 0.2 957.6 -0.2 92
2019-11-17 10:00:00 4.7 4 Nordeste 8 Nordeste 0 957.4 -0.4 94
2019-11-17 09:00:00 3.6 2 Sudeste 5 Sur 0 957.5 -0.8 98
2019-11-17 08:00:00 3.1 2 Este 5 Norte 0 957.8 -0.6 97
2019-11-17 07:00:00 3.3 2 Nordeste 5 Nordeste 0.1 957.8 -0.8 98
2019-11-17 06:00:00 3.3 0 Calma 5 Oeste 0 958.3 -0.8 97
2019-11-17 05:00:00 3.3 2 Nordeste 9 Nordeste 0 958.4 -0.8 97
2019-11-17 04:00:00 3.1 3 Este 8 Sudoeste 0 958.6 -1.1 97
2019-11-17 03:00:00 3 3 Este 8 Nordeste 0 959.1 -0.8 98
2019-11-17 02:00:00 2.3 5 Sudeste 13 Nordeste 0 959.2 -0.9 97
2019-11-17 01:00:00 2.9 7 Nordeste 11 Nordeste 0 959.7 -0.2 97
2019-11-17 00:00:00 2.7 5 Sudeste 13 Nordeste 0 959.9 -0.3 97
2019-11-16 23:00:00 2.7 3 Sudeste 13 Nordeste 0 960.1 0 97
2019-11-16 22:00:00 2.8 6 Sudeste 9 Sur 0 959.9 -0.1 97
2019-11-16 21:00:00 3.3 3 Nordeste 9 Sudoeste 0 960.2 0.5 97
2019-11-16 20:00:00 3.3 4 Nordeste 9 Nordeste 0 960.1 0.9 96
2019-11-16 19:00:00 3.2 4 Este 15 Nordeste 0.2 960 0.9 96
2019-11-16 18:00:00 3.1 5 Norte 13 Nordeste 0.4 959.7 1.1 96
2019-11-16 17:00:00 3.4 10 Nordeste 15 Nordeste 0.2 959.2 0.6 94
2019-11-16 16:00:00 3.2 12 Nordeste 22 Nordeste 0.5 959.1 0.5 95
2019-11-16 15:00:00 3.6 10 Nordeste 13 Nordeste 0.6 958.6 -0.6 94
2019-11-16 14:00:00 3.7 9 Nordeste 11 Nordeste 1 958.6 -0.4 94
2019-11-16 13:00:00 3.4 4 Nordeste 11 Noroeste 0.8 958.6 -0.1 92
2019-11-16 12:00:00 2.7 9 Norte 13 Norte 1.2 959.2 0.9 96
2019-11-16 11:00:00 1.9 4 Norte 8 Norte 0 959 1 97
2019-11-16 10:00:00 0.8 3 Oeste 8 Oeste 0 958.7 1.3 98
2019-11-16 09:00:00 -0.2 2 Norte 8 Oeste 0 958.3 1.3 97
2019-11-16 08:00:00 -0.8 3 Este 5 Este 0 958 1.4 97
2019-11-16 07:00:00 -0.9 4 Sur 5 Sur 0 957.4 1 97
2019-11-16 06:00:00 -0.4 4 Norte 9 Sur 0 957 0.9 97
2019-11-16 05:00:00 0.1 7 Sur 9 Sur 0 956.6 1.1 96
2019-11-16 04:00:00 0.4 2 Este 9 Noroeste 0 956.4 1.2 96
2019-11-16 03:00:00 0.7 6 Sudeste 9 Sur 0 956.1 1.3 97
2019-11-16 02:00:00 0.5 2 Sur 11 Sudeste 0 955.5 1.1 97
2019-11-16 01:00:00 0.2 3 Sudeste 8 Sudoeste 0 955.2 1.3 96
2019-11-16 00:00:00 0.6 5 Sur 8 Sudoeste 0 954.8 1.6 95
2019-11-15 23:00:00 1.3 3 Sudeste 8 Noroeste 0 954.4 1.6 94
2019-11-15 22:00:00 1.9 8 Norte 13 Noroeste 0 953.9 1.9 94
2019-11-15 21:00:00 2 9 Noroeste 17 Noroeste 0 953.2 2.3 95
2019-11-15 20:00:00 2.2 12 Oeste 21 Noroeste 1.1 952.8 2.7 94
2019-11-15 19:00:00 2.7 17 Norte 24 Norte 0.1 952 2.4 92
2019-11-15 18:00:00 3.9 14 Noroeste 41 Nordeste 0 950.9 2.2 85
2019-11-15 17:00:00 4.8 14 Norte 30 Norte 0 950.1 1.9 80
2019-11-15 16:00:00 6.7 21 Noroeste 30 Noroeste 0 949.6 1.4 70
2019-11-15 15:00:00 8 22 Noroeste 39 Noroeste 0 948.7 1 68
2019-11-15 14:00:00 6.8 19 Noroeste 35 Noroeste 0 948.2 1.3 81
2019-11-15 13:00:00 6.1 10 Noroeste 22 Oeste 0.4 948.2 0.9 88
2019-11-15 12:00:00 5.1 12 Oeste 41 Sudoeste 0.9 947.7 0.2 91
2019-11-15 11:00:00 4.8 25 Sudoeste 45 Sudoeste 0 946.9 -0.1 81
2019-11-15 10:00:00 4.3 10 Sudoeste 30 Oeste 0 947.3 0.5 87
2019-11-15 09:00:00 3.5 7 Oeste 30 Sudoeste 0.2 947.5 0.7 87
2019-11-15 08:00:00 3.3 18 Sudoeste 30 Sudoeste 0.6 947 0.4 87
2019-11-15 07:00:00 3.7 9 Sur 30 Oeste 0.1 946.8 -0.4 84
2019-11-15 06:00:00 3.6 12 Sudoeste 24 Oeste 0 946.8 -0.6 83
2019-11-15 05:00:00 2.6 7 Sur 13 Oeste 0 946.6 -0.8 90
2019-11-15 04:00:00 2.6 3 Sur 9 Sur 0 947.2 -0.2 93
2019-11-15 03:00:00 2.8 5 Nordeste 9 Nordeste 0 947.4 0.4 96
2019-11-15 02:00:00 3 -- -- -- -- 0.1 947.4 0.5 94
2019-11-15 01:00:00 2.5 6 Sur 11 Este 0 947.4 1.1 94
2019-11-15 00:00:00 3.6 3 Este 9 Sudeste 0 947 1.1 94